createdAt,value
2019-02-22T00:02:36.213Z,102035.00
2019-02-22T00:05:07.725Z,102034.00
2019-02-22T00:07:38.105Z,102034.00
2019-02-22T00:10:09.131Z,102040.00
2019-02-22T00:12:39.899Z,102046.00
2019-02-22T00:15:10.291Z,102054.00
2019-02-22T00:17:41.477Z,102057.00
2019-02-22T00:20:12.134Z,102055.00
2019-02-22T00:22:42.551Z,102071.00
2019-02-22T00:25:13.049Z,102076.00
2019-02-22T00:27:44.730Z,102088.00
2019-02-22T00:30:16.471Z,102085.00
2019-02-22T00:32:47.053Z,102086.00
2019-02-22T00:35:22.138Z,102094.00
2019-02-22T00:37:52.450Z,102101.00
2019-02-22T00:40:22.919Z,102101.00
2019-02-22T00:42:53.485Z,102103.00
2019-02-22T00:45:24.091Z,102112.00
2019-02-22T00:47:54.593Z,102107.00
2019-02-22T00:50:24.961Z,102108.00
2019-02-22T00:52:56.209Z,102107.00
2019-02-22T00:55:26.597Z,102125.00
2019-02-22T00:57:57.294Z,102131.00
2019-02-22T01:00:27.853Z,102126.00
2019-02-22T01:02:58.297Z,102131.00
2019-02-22T01:05:28.645Z,102134.00
2019-02-22T01:07:59.033Z,102142.00
2019-02-22T01:10:31.503Z,102157.00
2019-02-22T01:13:01.765Z,102157.00
2019-02-22T01:15:32.163Z,102155.00
2019-02-22T01:18:02.688Z,102166.00
2019-02-22T01:20:33.147Z,102166.00
2019-02-22T01:23:03.664Z,102160.00
2019-02-22T01:25:34.059Z,102164.00
2019-02-22T01:28:04.389Z,102162.00
2019-02-22T01:30:34.859Z,102175.00
2019-02-22T01:33:05.265Z,102173.00
2019-02-22T01:35:35.937Z,102171.00
2019-02-22T01:38:06.358Z,102171.00
2019-02-22T01:40:43.737Z,102177.00
2019-02-22T01:43:18.009Z,102181.00
2019-02-22T01:45:48.470Z,102175.00
2019-02-22T01:48:19.050Z,102183.00
2019-02-22T01:50:52.569Z,102184.00
2019-02-22T01:53:23.215Z,102181.00
2019-02-22T01:55:53.727Z,102191.00
2019-02-22T01:58:24.129Z,102191.00
2019-02-22T02:00:55.097Z,102185.00
2019-02-22T02:03:25.611Z,102189.00
2019-02-22T02:05:56.488Z,102195.00
2019-02-22T02:08:30.125Z,102190.00
2019-02-22T02:11:00.567Z,102192.00
2019-02-22T02:13:31.353Z,102197.00
2019-02-22T02:16:02.769Z,102191.00
2019-02-22T02:18:33.816Z,102195.00
2019-02-22T02:21:04.219Z,102196.00
2019-02-22T02:23:34.616Z,102199.00
2019-02-22T02:26:05.049Z,102207.00
2019-02-22T02:28:35.595Z,102214.00
2019-02-22T02:31:06.170Z,102206.00
2019-02-22T02:33:36.623Z,102210.00
2019-02-22T02:36:07.406Z,102209.00
2019-02-22T02:38:37.809Z,102201.00
2019-02-22T02:41:11.233Z,102209.00
2019-02-22T02:43:41.807Z,102208.00
2019-02-22T02:46:12.290Z,102220.00
2019-02-22T02:48:45.147Z,102210.00
2019-02-22T02:51:16.053Z,102201.00
2019-02-22T02:53:46.455Z,102217.00
2019-02-22T02:56:16.951Z,102214.00
2019-02-22T02:58:47.311Z,102220.00
2019-02-22T03:01:17.671Z,102217.00
2019-02-22T03:03:48.118Z,102212.00
2019-02-22T03:06:27.669Z,102234.00
2019-02-22T03:09:00.413Z,102230.00
2019-02-22T03:11:33.871Z,102237.00
2019-02-22T03:14:03.061Z,102252.00
2019-02-22T03:16:35.133Z,102256.00
2019-02-22T03:19:05.662Z,102259.00
2019-02-22T03:21:36.207Z,102263.00
2019-02-22T03:24:06.689Z,102275.00
2019-02-22T03:26:37.118Z,102279.00
2019-02-22T03:29:07.572Z,102278.00
2019-02-22T03:31:37.924Z,102275.00
2019-02-22T03:34:08.585Z,102283.00
2019-02-22T03:36:38.970Z,102297.00
2019-02-22T03:39:09.575Z,102293.00
2019-02-22T03:41:40.103Z,102284.00
2019-02-22T03:44:10.617Z,102281.00
2019-02-22T03:46:41.227Z,102299.00
2019-02-22T03:49:11.684Z,102304.00
2019-02-22T03:51:42.099Z,102299.00
2019-02-22T03:54:14.742Z,102307.00
2019-02-22T03:56:45.527Z,102307.00
2019-02-22T03:59:17.154Z,102311.00
2019-02-22T04:01:47.483Z,102309.00
2019-02-22T04:04:17.918Z,102299.00
2019-02-22T04:06:48.687Z,102306.00
2019-02-22T04:09:19.123Z,102310.00
2019-02-22T04:11:49.454Z,102310.00
2019-02-22T04:14:20.056Z,102319.00
2019-02-22T04:16:50.534Z,102328.00
2019-02-22T04:19:20.977Z,102336.00
2019-02-22T04:21:51.334Z,102304.00
2019-02-22T04:24:21.804Z,102339.00
2019-02-22T04:26:52.164Z,102336.00
2019-02-22T04:29:22.475Z,102337.00
2019-02-22T04:31:52.840Z,102339.00
2019-02-22T04:34:24.995Z,102344.00
2019-02-22T04:36:55.672Z,102349.00
2019-02-22T04:39:26.126Z,102345.00
2019-02-22T04:41:58.314Z,102341.00
2019-02-22T04:44:29.094Z,102338.00
2019-02-22T04:46:59.440Z,102362.00
2019-02-22T04:49:32.543Z,102349.00
2019-02-22T04:52:02.918Z,102366.00
2019-02-22T04:54:33.577Z,102364.00
2019-02-22T04:57:03.968Z,102363.00
2019-02-22T04:59:34.392Z,102370.00
2019-02-22T05:02:04.732Z,102366.00
2019-02-22T05:04:35.283Z,102382.00
2019-02-22T05:07:05.660Z,102390.00
2019-02-22T05:09:36.021Z,102402.00
2019-02-22T05:12:10.984Z,102407.00
2019-02-22T05:14:39.932Z,102408.00
2019-02-22T05:17:10.589Z,102402.00
2019-02-22T05:19:40.954Z,102409.00
2019-02-22T05:22:11.292Z,102412.00
2019-02-22T05:24:41.922Z,102420.00
2019-02-22T05:27:12.348Z,102415.00
2019-02-22T05:29:42.724Z,102420.00
2019-02-22T05:32:13.321Z,102419.00
2019-02-22T05:34:43.777Z,102431.00
2019-02-22T05:37:17.268Z,102423.00
2019-02-22T05:39:47.774Z,102425.00
2019-02-22T05:42:22.888Z,102432.00
2019-02-22T05:44:51.968Z,102438.00
2019-02-22T05:47:22.867Z,102452.00
2019-02-22T05:49:55.275Z,102449.00
2019-02-22T05:52:25.665Z,102453.00
2019-02-22T05:54:55.930Z,102456.00
2019-02-22T05:57:26.358Z,102452.00
2019-02-22T05:59:56.661Z,102462.00
2019-02-22T06:02:26.985Z,102479.00
2019-02-22T06:04:57.396Z,102478.00
2019-02-22T06:07:27.648Z,102480.00
2019-02-22T06:09:59.466Z,102484.00
2019-02-22T06:12:34.832Z,102484.00
2019-02-22T06:15:03.984Z,102485.00
2019-02-22T06:17:34.380Z,102504.00
2019-02-22T06:20:05.234Z,102497.00
2019-02-22T06:22:36.751Z,102511.00
2019-02-22T06:25:07.474Z,102516.00
2019-02-22T06:27:38.162Z,102511.00
2019-02-22T06:30:08.991Z,102528.00
2019-02-22T06:32:42.122Z,102536.00
2019-02-22T06:35:11.733Z,102531.00
2019-02-22T06:37:42.518Z,102536.00
2019-02-22T06:40:13.234Z,102538.00
2019-02-22T06:45:16.004Z,102550.00
2019-02-22T06:47:47.267Z,102546.00
2019-02-22T06:50:18.376Z,102548.00
2019-02-22T06:52:49.756Z,102553.00
2019-02-22T06:55:21.184Z,102559.00
2019-02-22T06:57:52.324Z,102570.00
2019-02-22T07:00:23.092Z,102574.00
2019-02-22T07:02:54.060Z,102568.00
2019-02-22T07:05:25.073Z,102568.00
2019-02-22T07:07:56.991Z,102574.00
2019-02-22T07:10:27.880Z,102575.00
2019-02-22T07:13:05.481Z,102586.00
2019-02-22T07:15:36.278Z,102578.00
2019-02-22T07:18:07.649Z,102584.00
2019-02-22T07:20:39.325Z,102583.00
2019-02-22T07:23:11.005Z,102586.00
2019-02-22T07:25:42.351Z,102596.00
2019-02-22T07:28:13.713Z,102608.00
2019-02-22T07:30:44.877Z,102623.00
2019-02-22T07:33:16.135Z,102617.00
2019-02-22T07:35:47.642Z,102622.00
2019-02-22T07:38:19.456Z,102622.00
2019-02-22T07:40:50.187Z,102632.00
2019-02-22T07:43:21.429Z,102631.00
2019-02-22T07:45:52.331Z,102648.00
2019-02-22T07:48:24.279Z,102652.00
2019-02-22T07:50:58.159Z,102653.00
2019-02-22T07:53:27.859Z,102656.00
2019-02-22T07:55:58.568Z,102669.00
2019-02-22T07:58:30.093Z,102664.00
2019-02-22T08:01:00.997Z,102675.00
2019-02-22T08:03:31.909Z,102697.00
2019-02-22T08:06:02.646Z,102695.00
2019-02-22T08:08:33.941Z,102700.00
2019-02-22T08:11:04.964Z,102705.00
2019-02-22T08:13:36.139Z,102716.00
2019-02-22T08:16:07.315Z,102715.00
2019-02-22T08:18:39.991Z,102709.00
2019-02-22T08:21:10.806Z,102715.00
2019-02-22T08:23:41.885Z,102716.00
2019-02-22T08:26:12.401Z,102716.00
2019-02-22T08:28:43.325Z,102717.00
2019-02-22T08:31:14.383Z,102721.00
2019-02-22T08:33:45.145Z,102725.00
2019-02-22T08:36:16.059Z,102728.00
2019-02-22T08:38:46.951Z,102728.00
2019-02-22T08:41:18.880Z,102739.00
2019-02-22T08:43:49.985Z,102736.00
2019-02-22T08:46:22.556Z,102754.00
2019-02-22T08:48:53.508Z,102760.00
2019-02-22T08:51:24.491Z,102754.00
2019-02-22T08:53:58.323Z,102765.00
2019-02-22T08:56:29.205Z,102771.00
2019-02-22T08:59:02.442Z,102761.00
2019-02-22T09:01:35.548Z,102770.00
2019-02-22T09:04:05.879Z,102771.00
2019-02-22T09:06:38.049Z,102774.00
2019-02-22T09:09:08.841Z,102771.00
2019-02-22T09:11:39.667Z,102787.00
2019-02-22T09:14:10.941Z,102788.00
2019-02-22T09:16:41.943Z,102794.00
2019-02-22T09:19:15.451Z,102794.00
2019-02-22T09:21:46.094Z,102805.00
2019-02-22T09:24:17.242Z,102807.00
2019-02-22T09:26:48.431Z,102801.00
2019-02-22T09:29:20.910Z,102815.00
2019-02-22T09:31:52.503Z,102813.00
2019-02-22T09:34:23.247Z,102824.00
2019-02-22T09:36:54.223Z,102818.00
2019-02-22T09:39:27.477Z,102834.00
2019-02-22T09:41:58.483Z,102833.00
2019-02-22T09:44:30.465Z,102841.00
2019-02-22T09:47:01.400Z,102846.00
2019-02-22T09:49:32.373Z,102839.00
2019-02-22T09:52:03.143Z,102841.00
2019-02-22T09:54:34.102Z,102847.00
2019-02-22T09:57:05.095Z,102848.00
2019-02-22T09:59:40.544Z,102848.00
2019-02-22T10:02:11.205Z,102848.00
2019-02-22T10:04:42.320Z,102853.00
2019-02-22T10:07:13.812Z,102854.00
2019-02-22T10:09:44.942Z,102870.00
2019-02-22T10:12:15.971Z,102875.00
2019-02-22T10:14:46.692Z,102875.00
2019-02-22T10:17:18.442Z,102899.00
2019-02-22T10:19:49.250Z,102898.00
2019-02-22T10:22:20.123Z,102903.00
2019-02-22T10:24:50.947Z,102904.00
2019-02-22T10:27:23.498Z,102903.00
2019-02-22T10:29:54.411Z,102920.00
2019-02-22T10:32:27.264Z,102917.00
2019-02-22T10:34:58.245Z,102925.00
2019-02-22T10:37:31.001Z,102928.00
2019-02-22T10:40:01.720Z,102912.00
2019-02-22T10:42:33.089Z,102919.00
2019-02-22T10:45:04.108Z,102932.00
2019-02-22T10:47:34.972Z,102938.00
2019-02-22T10:50:06.054Z,102931.00
2019-02-22T10:52:36.904Z,102947.00
2019-02-22T10:55:08.462Z,102948.00
2019-02-22T10:57:39.462Z,102946.00
2019-02-22T11:00:11.844Z,102952.00
2019-02-22T11:02:43.002Z,102952.00
2019-02-22T11:05:13.915Z,102955.00
2019-02-22T11:07:44.847Z,102971.00
2019-02-22T11:10:16.272Z,102965.00
2019-02-22T11:12:47.198Z,102969.00
2019-02-22T11:15:18.515Z,102967.00
2019-02-22T11:17:49.884Z,102973.00
2019-02-22T11:20:21.606Z,102970.00
2019-02-22T11:22:52.979Z,102969.00
2019-02-22T11:25:23.999Z,102980.00
2019-02-22T11:27:55.532Z,102992.00
2019-02-22T11:30:26.838Z,102977.00
2019-02-22T11:32:58.489Z,102982.00
2019-02-22T11:35:32.530Z,102985.00
2019-02-22T11:38:05.150Z,102988.00
2019-02-22T11:40:36.626Z,102985.00
2019-02-22T11:43:07.796Z,102986.00
2019-02-22T11:45:46.070Z,103006.00
2019-02-22T11:48:17.119Z,103002.00
2019-02-22T11:50:51.020Z,103014.00
2019-02-22T11:53:22.063Z,103014.00
2019-02-22T11:55:53.584Z,103018.00
2019-02-22T11:58:24.754Z,103020.00
2019-02-22T12:00:56.376Z,103018.00
2019-02-22T12:03:33.164Z,103011.00
2019-02-22T12:06:04.270Z,103018.00
2019-02-22T12:08:35.566Z,103017.00
2019-02-22T12:11:06.862Z,103013.00
2019-02-22T12:13:42.140Z,103016.00
2019-02-22T12:16:13.140Z,103028.00
2019-02-22T12:18:44.592Z,103020.00
2019-02-22T12:21:16.299Z,103034.00
2019-02-22T12:23:47.478Z,103036.00
2019-02-22T12:26:21.092Z,103035.00
2019-02-22T12:28:51.254Z,103036.00
2019-02-22T12:31:28.035Z,103042.00
2019-02-22T12:33:59.178Z,103036.00
2019-02-22T12:36:30.272Z,103038.00
2019-02-22T12:39:02.932Z,103053.00
2019-02-22T12:41:34.999Z,103062.00
2019-02-22T12:44:10.013Z,103052.00
2019-02-22T12:46:43.610Z,103073.00
2019-02-22T12:49:15.920Z,103074.00
2019-02-22T12:51:46.885Z,103085.00
2019-02-22T12:54:17.684Z,103083.00
2019-02-22T12:56:57.834Z,103089.00
2019-02-22T12:59:20.670Z,103086.00
2019-02-22T13:01:51.804Z,103080.00
2019-02-22T13:04:23.050Z,103107.00
2019-02-22T13:06:55.345Z,103096.00
2019-02-22T13:09:36.318Z,103104.00
2019-02-22T13:11:59.778Z,103115.00
2019-02-22T13:14:30.700Z,103116.00
2019-02-22T13:17:02.275Z,103105.00
2019-02-22T13:19:33.624Z,103112.00
2019-02-22T13:22:05.310Z,103126.00
2019-02-22T13:24:37.217Z,103142.00
2019-02-22T13:27:07.990Z,103133.00
2019-02-22T13:29:38.604Z,103146.00
2019-02-22T13:32:13.019Z,103151.00
2019-02-22T13:34:46.689Z,103141.00
2019-02-22T13:37:17.642Z,103156.00
2019-02-22T13:39:48.773Z,103156.00
2019-02-22T13:42:20.252Z,103164.00
2019-02-22T13:44:51.256Z,103160.00
2019-02-22T13:47:22.169Z,103168.00
2019-02-22T13:49:55.416Z,103163.00
2019-02-22T13:52:27.536Z,103172.00
2019-02-22T13:55:02.369Z,103167.00
2019-02-22T13:57:35.079Z,103181.00
2019-02-22T14:00:07.393Z,103184.00
2019-02-22T14:02:41.042Z,103167.00
2019-02-22T14:05:20.435Z,103134.00
2019-02-22T14:07:55.723Z,103163.00
2019-02-22T14:10:27.307Z,103156.00
2019-02-22T14:12:58.253Z,103161.00
2019-02-22T14:15:37.470Z,103160.00
2019-02-22T14:18:04.058Z,103147.00
2019-02-22T14:20:35.309Z,103152.00
2019-02-22T14:23:10.302Z,103160.00
2019-02-22T14:25:43.165Z,103163.00
2019-02-22T14:28:14.025Z,103165.00
2019-02-22T14:30:46.727Z,103170.00
2019-02-22T14:33:18.669Z,103167.00
2019-02-22T14:35:52.495Z,103193.00
2019-02-22T14:38:25.496Z,103197.00
2019-02-22T14:40:59.028Z,103189.00
2019-02-22T14:43:30.163Z,103183.00
2019-02-22T14:46:01.153Z,103179.00
2019-02-22T14:48:32.931Z,103185.00
2019-02-22T14:51:03.670Z,103192.00
2019-02-22T14:53:34.961Z,103203.00
2019-02-22T14:56:06.167Z,103195.00
2019-02-22T14:58:37.371Z,103214.00
2019-02-22T15:01:08.066Z,103216.00
2019-02-22T15:03:39.039Z,103206.00
2019-02-22T15:06:09.989Z,103212.00
2019-02-22T15:08:41.047Z,103208.00
2019-02-22T15:11:12.669Z,103211.00
2019-02-22T15:13:43.490Z,103207.00
2019-02-22T15:16:26.704Z,103191.00
2019-02-22T15:18:57.383Z,103208.00
2019-02-22T15:21:28.250Z,103209.00
2019-02-22T15:23:59.312Z,103217.00
2019-02-22T15:26:30.690Z,103210.00
2019-02-22T15:29:01.836Z,103233.00
2019-02-22T15:31:36.121Z,103226.00
2019-02-22T15:34:05.984Z,103235.00
2019-02-22T15:36:37.543Z,103239.00
2019-02-22T15:39:08.505Z,103238.00
2019-02-22T15:41:39.529Z,103244.00
2019-02-22T15:44:10.347Z,103240.00
2019-02-22T15:46:41.790Z,103235.00
2019-02-22T15:49:13.063Z,103225.00
2019-02-22T15:51:43.860Z,103212.00
2019-02-22T15:54:18.077Z,103212.00
2019-02-22T15:56:49.237Z,103211.00
2019-02-22T15:59:21.126Z,103227.00
2019-02-22T16:01:55.585Z,103226.00
2019-02-22T16:04:30.215Z,103217.00
2019-02-22T16:07:01.005Z,103222.00
2019-02-22T16:09:32.283Z,103230.00
2019-02-22T16:12:03.299Z,103230.00
2019-02-22T16:14:34.669Z,103235.00
2019-02-22T16:17:05.950Z,103250.00
2019-02-22T16:19:36.564Z,103242.00
2019-02-22T16:22:07.388Z,103248.00
2019-02-22T16:24:38.120Z,103246.00
2019-02-22T16:27:09.078Z,103253.00
2019-02-22T16:29:39.967Z,103242.00
2019-02-22T16:32:10.930Z,103244.00
2019-02-22T16:34:43.764Z,103247.00
2019-02-22T16:37:14.275Z,103233.00
2019-02-22T16:39:44.772Z,103249.00
2019-02-22T16:42:16.562Z,103240.00
2019-02-22T16:44:47.008Z,103243.00
2019-02-22T16:47:17.666Z,103241.00
2019-02-22T16:49:48.178Z,103248.00
2019-02-22T16:52:18.609Z,103257.00
2019-02-22T16:54:58.530Z,103245.00
2019-02-22T16:57:28.941Z,103257.00
2019-02-22T17:00:00.508Z,103253.00
2019-02-22T17:02:31.329Z,103264.00
2019-02-22T17:05:01.677Z,103256.00
2019-02-22T17:07:31.973Z,103269.00
2019-02-22T17:10:02.750Z,103267.00
2019-02-22T17:12:34.237Z,103263.00
2019-02-22T17:15:05.240Z,103273.00
2019-02-22T17:17:39.085Z,103278.00
2019-02-22T17:20:10.695Z,103279.00
2019-02-22T17:22:41.656Z,103279.00
2019-02-22T17:25:13.986Z,103281.00
2019-02-22T17:27:45.383Z,103290.00
2019-02-22T17:30:17.119Z,103289.00
2019-02-22T17:32:48.332Z,103297.00
2019-02-22T17:35:19.276Z,103295.00
2019-02-22T17:37:49.739Z,103308.00
2019-02-22T17:40:22.722Z,103310.00
2019-02-22T17:42:53.887Z,103315.00
2019-02-22T17:45:24.305Z,103318.00
2019-02-22T17:47:55.000Z,103324.00
2019-02-22T17:50:25.750Z,103330.00
2019-02-22T17:52:56.552Z,103327.00
2019-02-22T17:55:27.076Z,103330.00
2019-02-22T17:58:00.330Z,103327.00
2019-02-22T18:00:33.630Z,103333.00
2019-02-22T18:03:04.038Z,103328.00
2019-02-22T18:05:34.438Z,103327.00
2019-02-22T18:08:06.998Z,103323.00
2019-02-22T18:10:37.679Z,103308.00
2019-02-22T18:13:08.148Z,103318.00
2019-02-22T18:15:38.976Z,103306.00
2019-02-22T18:18:09.355Z,103315.00
2019-02-22T18:20:40.012Z,103312.00
2019-02-22T18:23:10.960Z,103320.00
2019-02-22T18:25:41.572Z,103314.00
2019-02-22T18:28:12.165Z,103315.00
2019-02-22T18:30:42.839Z,103317.00
2019-02-22T18:33:13.957Z,103312.00
2019-02-22T18:35:44.459Z,103312.00
2019-02-22T18:38:17.706Z,103306.00
2019-02-22T18:40:48.502Z,103305.00
2019-02-22T18:43:19.279Z,103316.00
2019-02-22T18:45:50.150Z,103325.00
2019-02-22T18:48:20.943Z,103325.00
2019-02-22T18:50:51.825Z,103338.00
2019-02-22T18:53:22.479Z,103322.00
2019-02-22T18:55:53.014Z,103327.00
2019-02-22T18:58:23.671Z,103341.00
2019-02-22T19:00:54.286Z,103339.00
2019-02-22T19:03:33.810Z,103308.00
2019-02-22T19:06:04.463Z,103351.00
2019-02-22T19:08:34.937Z,103353.00
2019-02-22T19:11:05.539Z,103348.00
2019-02-22T19:13:36.054Z,103348.00
2019-02-22T19:16:06.614Z,103349.00
2019-02-22T19:18:37.458Z,103358.00
2019-02-22T19:21:10.862Z,103363.00
2019-02-22T19:23:41.454Z,103361.00
2019-02-22T19:26:12.224Z,103352.00
2019-02-22T19:28:43.370Z,103355.00
2019-02-22T19:31:17.210Z,103358.00
2019-02-22T19:33:50.852Z,103350.00
2019-02-22T19:36:24.079Z,103352.00
2019-02-22T19:38:54.994Z,103360.00
2019-02-22T19:41:25.567Z,103375.00
2019-02-22T19:43:56.668Z,103372.00
2019-02-22T19:46:27.339Z,103370.00
2019-02-22T19:48:58.542Z,103376.00
2019-02-22T19:51:29.114Z,103366.00
2019-02-22T19:54:00.279Z,103371.00
2019-02-22T19:56:31.485Z,103364.00
2019-02-22T19:59:02.058Z,103343.00
2019-02-22T20:01:32.990Z,103354.00
2019-02-22T20:04:03.683Z,103360.00
2019-02-22T20:06:34.109Z,103349.00
2019-02-22T20:09:06.548Z,103349.00
2019-02-22T20:11:37.364Z,103349.00
2019-02-22T20:14:07.806Z,103352.00
2019-02-22T20:16:39.500Z,103361.00
2019-02-22T20:19:10.274Z,103357.00
2019-02-22T20:21:44.798Z,103370.00
2019-02-22T20:24:15.284Z,103359.00
2019-02-22T20:26:46.047Z,103357.00
2019-02-22T20:29:17.569Z,103337.00
2019-02-22T20:31:47.981Z,103324.00
2019-02-22T20:34:22.321Z,103340.00
2019-02-22T20:36:52.929Z,103347.00
2019-02-22T20:39:23.408Z,103352.00
2019-02-22T20:41:54.169Z,103339.00
2019-02-22T20:44:24.720Z,103336.00
2019-02-22T20:46:55.084Z,103333.00
2019-02-22T20:49:25.765Z,103348.00
2019-02-22T20:51:56.264Z,103351.00
2019-02-22T20:54:27.076Z,103363.00
2019-02-22T20:56:57.615Z,103354.00
2019-02-22T20:59:29.882Z,103345.00
2019-02-22T21:02:00.532Z,103350.00
2019-02-22T21:04:31.200Z,103354.00
2019-02-22T21:07:01.997Z,103369.00
2019-02-22T21:09:32.455Z,103368.00
2019-02-22T21:12:03.049Z,103376.00
2019-02-22T21:14:33.501Z,103373.00
2019-02-22T21:17:04.389Z,103378.00
2019-02-22T21:19:34.956Z,103378.00
2019-02-22T21:22:05.622Z,103388.00
2019-02-22T21:24:36.366Z,103381.00
2019-02-22T21:27:07.101Z,103377.00
2019-02-22T21:29:39.159Z,103389.00
2019-02-22T21:32:09.812Z,103400.00
2019-02-22T21:34:40.409Z,103401.00
2019-02-22T21:37:10.942Z,103410.00
2019-02-22T21:39:43.351Z,103403.00
2019-02-22T21:42:20.177Z,103408.00
2019-02-22T21:44:48.053Z,103409.00
2019-02-22T21:47:18.655Z,103423.00
2019-02-22T21:49:50.145Z,103418.00
2019-02-22T21:52:20.903Z,103414.00
2019-02-22T21:54:51.456Z,103415.00
2019-02-22T21:57:22.060Z,103408.00
2019-02-22T21:59:53.620Z,103401.00
2019-02-22T22:02:25.170Z,103410.00
2019-02-22T22:04:55.704Z,103409.00
2019-02-22T22:07:26.238Z,103398.00
2019-02-22T22:09:56.831Z,103410.00
2019-02-22T22:12:27.419Z,103414.00
2019-02-22T22:14:57.871Z,103397.00
2019-02-22T22:17:28.584Z,103415.00
2019-02-22T22:19:59.136Z,103420.00
2019-02-22T22:22:29.489Z,103411.00
2019-02-22T22:25:00.312Z,103411.00
2019-02-22T22:27:33.633Z,103404.00
2019-02-22T22:30:04.685Z,103417.00
2019-02-22T22:32:35.379Z,103408.00
2019-02-22T22:35:06.661Z,103424.00
2019-02-22T22:37:37.549Z,103403.00
2019-02-22T22:40:09.415Z,103429.00
2019-02-22T22:42:40.760Z,103432.00
2019-02-22T22:45:12.286Z,103416.00
2019-02-22T22:47:42.905Z,103415.00
2019-02-22T22:50:14.132Z,103423.00
2019-02-22T22:52:45.709Z,103425.00
2019-02-22T22:55:18.678Z,103419.00
2019-02-22T22:57:49.135Z,103419.00
2019-02-22T23:00:40.254Z,103419.00
2019-02-22T23:03:12.237Z,103437.00
2019-02-22T23:05:46.053Z,103446.00
2019-02-22T23:08:16.561Z,103442.00
2019-02-22T23:10:47.252Z,103464.00
2019-02-22T23:13:17.745Z,103471.00
2019-02-22T23:15:48.391Z,103467.00
2019-02-22T23:18:19.489Z,103463.00
2019-02-22T23:20:50.179Z,103468.00
2019-02-22T23:23:24.057Z,103474.00
2019-02-22T23:25:54.534Z,103476.00
2019-02-22T23:28:25.125Z,103472.00
2019-02-22T23:30:55.867Z,103453.00
2019-02-22T23:33:26.399Z,103456.00
2019-02-22T23:36:00.272Z,103449.00
2019-02-22T23:38:30.932Z,103451.00
2019-02-22T23:41:01.679Z,103463.00
2019-02-22T23:43:33.174Z,103466.00
2019-02-22T23:46:03.480Z,103457.00
2019-02-22T23:48:34.088Z,103471.00
2019-02-22T23:51:04.590Z,103461.00
2019-02-22T23:53:35.260Z,103472.00
2019-02-22T23:56:05.769Z,103473.00
2019-02-22T23:58:36.332Z,103465.00
